Troyes-Barberey Airport

Airport
ICAO code: 
LFQB
IATA Code: 
QYR
Summary
ICAO Region: 
EUR
Territory: 
Location: 
, Champagne-Ardenne
Serving: 
Troyes
Elevation: 
388 ft
Coordinates: 
Aerial View: 
48° 19' 19.69" N, 4° 1' 0.131" E
Metar
Observation
LFQB 240530Z AUTO VRB02KT 0400 FZFG NSC M04/M05 Q1031
Station
Troyes
Date/Time
2022-01-24 05:30:00
Wind speed
02 kts
Lowest cloud amount
nil significant cloud
Temperature
-4°C
Dew point
-5°C
Humidity
92%
QNH
1031 hPa
Weather condition
n/a

Runways

Designator Length Width Surface Rops
5/23 780 100 GRS No/No
18R/36L 900 100 GRS No/No
18/36 1650 30 ASP No/No
Airport map: 
Aerial View: 

SKYbrary Partners:

Safety knowledge contributed by: